Time;durP1;ratioP1;P1;durP2;ratioP2;P2;SDS_P1;SDS_P2;PMS_P1;PMS_P2;Temp;Humidity;BMP_temperature;BMP_pressure;BME280_temperature;BME280_humidity;BME280_pressure;Samples;Min_cycle;Max_cycle;Signal;HPM_P1;HPM_P2
2022/04/13 00:02:08;;;;;;;5.17;1.57;;;;;;;12.88;66.31;98309.38;5111140;28;20188;-55
2022/04/13 00:04:35;;;;;;;8.43;1.60;;;;;;;12.84;68.10;98311.56;5111382;28;20661;-55
2022/04/13 00:07:01;;;;;;;5.63;1.53;;;;;;;12.85;65.58;98310.56;5111803;28;20684;-55
2022/04/13 00:09:29;;;;;;;6.10;1.30;;;;;;;12.80;67.19;98312.88;5111214;28;20220;-55
2022/04/13 00:11:56;;;;;;;4.70;1.60;;;;;;;12.78;68.36;98307.81;5110995;28;20237;-55
2022/04/13 00:14:23;;;;;;;6.30;1.50;;;;;;;12.80;67.70;98321.53;5110924;28;20183;-54
2022/04/13 00:16:50;;;;;;;5.87;1.57;;;;;;;12.79;67.60;98319.91;5111754;28;20196;-54
2022/04/13 00:19:17;;;;;;;7.07;1.70;;;;;;;12.77;68.85;98319.25;5111584;28;20722;-55
2022/04/13 00:21:44;;;;;;;2.40;1.63;;;;;;;12.74;68.32;98324.84;5110409;28;20187;-55
2022/04/13 00:24:13;;;;;;;9.17;1.60;;;;;;;12.78;66.56;98333.19;5111048;28;20192;-54
2022/04/13 00:26:41;;;;;;;6.13;1.53;;;;;;;12.73;67.17;98341.53;5111451;28;20207;-54
2022/04/13 00:29:07;;;;;;;5.07;1.57;;;;;;;12.72;66.86;98342.53;5110985;28;20211;-54
2022/04/13 00:31:34;;;;;;;8.33;1.60;;;;;;;12.84;67.20;98341.16;5110030;28;20180;-54
2022/04/13 00:34:01;;;;;;;6.93;2.50;;;;;;;12.82;67.23;98347.56;5111030;28;20659;-55
2022/04/13 00:36:28;;;;;;;5.83;2.67;;;;;;;12.77;67.46;98350.69;5077783;28;20192;-55
2022/04/13 00:38:54;;;;;;;8.70;2.87;;;;;;;12.75;67.62;98346.63;5090453;28;20639;-55
2022/04/13 00:41:21;;;;;;;7.20;3.50;;;;;;;12.72;68.52;98339.13;5090506;28;20191;-52
2022/04/13 00:44:03;;;;;;;5.27;3.13;;;;;;;12.71;67.66;98348.78;5091066;28;20202;-55
2022/04/13 00:46:30;;;;;;;8.33;3.20;;;;;;;12.73;67.46;98344.16;5091167;28;20676;-55
2022/04/13 00:48:58;;;;;;;10.77;3.57;;;;;;;12.74;69.47;98348.41;5090902;28;20212;-54
2022/04/13 00:51:25;;;;;;;10.30;2.93;;;;;;;12.73;70.72;98343.38;5090223;28;20206;-54
2022/04/13 00:53:53;;;;;;;8.37;3.73;;;;;;;12.72;71.07;98345.16;5090977;28;20468;-54
2022/04/13 00:56:23;;;;;;;5.40;3.00;;;;;;;12.68;73.23;98339.47;5090672;28;20205;-54
2022/04/13 00:58:52;;;;;;;8.83;2.77;;;;;;;12.67;72.88;98337.03;5090830;28;20224;-53
2022/04/13 01:01:22;;;;;;;7.17;3.07;;;;;;;12.60;72.77;98342.13;5090094;28;20260;-54
2022/04/13 01:03:51;;;;;;;8.53;2.97;;;;;;;12.58;72.89;98341.47;5090759;28;20189;-54
2022/04/13 01:06:19;;;;;;;10.40;2.80;;;;;;;12.57;73.44;98347.69;5090468;28;20278;-54
2022/04/13 01:08:49;;;;;;;7.53;3.13;;;;;;;12.56;73.07;98340.81;5082648;28;20284;-55
2022/04/13 01:11:17;;;;;;;11.10;3.03;;;;;;;12.62;70.66;98341.97;5083378;28;20293;-54
2022/04/13 01:13:44;;;;;;;6.50;2.70;;;;;;;12.69;72.08;98338.47;5083513;28;20216;-53
2022/04/13 01:16:11;;;;;;;6.37;2.30;;;;;;;12.72;72.64;98350.38;5082923;28;20241;-54
2022/04/13 01:18:40;;;;;;;8.53;2.47;;;;;;;12.74;69.95;98345.78;5087779;28;20215;-54
2022/04/13 01:21:12;;;;;;;5.77;2.20;;;;;;;12.75;71.12;98357.09;5088512;28;20552;-54
2022/04/13 01:23:40;;;;;;;7.60;2.70;;;;;;;12.78;71.22;98354.94;5089731;28;20600;-52
2022/04/13 01:26:11;;;;;;;7.47;2.30;;;;;;;12.77;72.79;98355.13;5090351;28;20192;-54
2022/04/13 01:28:38;;;;;;;7.00;2.30;;;;;;;12.77;73.07;98348.06;5094066;28;20204;-53
2022/04/13 01:31:05;;;;;;;6.37;2.00;;;;;;;12.67;74.67;98353.53;5092852;28;20803;-54
2022/04/13 01:33:33;;;;;;;9.27;2.43;;;;;;;12.61;73.67;98354.22;5093671;28;20188;-54
2022/04/13 01:36:01;;;;;;;4.20;2.10;;;;;;;12.60;72.01;98357.03;5093334;28;20237;-53
2022/04/13 01:38:28;;;;;;;8.23;2.27;;;;;;;12.66;72.31;98357.16;5093496;28;20299;-53
2022/04/13 01:40:58;;;;;;;5.70;2.23;;;;;;;12.62;73.44;98358.47;5092837;28;20243;-53
2022/04/13 01:43:25;;;;;;;6.60;2.77;;;;;;;12.59;73.23;98358.81;5093432;28;20680;-54
2022/04/13 01:45:53;;;;;;;5.07;2.20;;;;;;;12.57;72.63;98362.59;5093085;28;20262;-53
2022/04/13 01:48:20;;;;;;;4.77;2.27;;;;;;;12.52;72.41;98369.16;5093672;28;20208;-55
2022/04/13 01:50:47;;;;;;;6.30;2.20;;;;;;;12.55;74.18;98366.19;5092923;28;20249;-54
2022/04/13 01:53:14;;;;;;;4.43;2.33;;;;;;;12.47;73.11;98368.84;5092362;22;20599;-57
2022/04/13 01:55:41;;;;;;;6.67;2.60;;;;;;;12.44;71.66;98363.94;5052466;28;20198;-57
2022/04/13 01:58:09;;;;;;;5.67;2.20;;;;;;;12.43;72.36;98359.69;5044888;28;20198;-57
2022/04/13 02:00:36;;;;;;;5.27;2.03;;;;;;;12.46;71.57;98364.59;5048519;28;20284;-57
2022/04/13 02:03:03;;;;;;;8.17;4.50;;;;;;;12.54;73.02;98375.03;5046736;28;20696;-57
2022/04/13 02:05:30;;;;;;;5.87;2.13;;;;;;;12.52;72.04;98369.16;5051066;28;20269;-57
2022/04/13 02:07:57;;;;;;;7.47;2.50;;;;;;;12.53;71.46;98369.97;5053069;28;20243;-57
2022/04/13 02:10:23;;;;;;;8.53;2.50;;;;;;;12.54;70.79;98366.34;5049505;28;20571;-57
2022/04/13 02:12:51;;;;;;;12.97;2.33;;;;;;;12.51;70.20;98358.84;5046263;28;20224;-56
2022/04/13 02:15:20;;;;;;;7.03;2.00;;;;;;;12.52;70.10;98365.72;5052645;28;20208;-57
2022/04/13 02:17:46;;;;;;;5.43;2.13;;;;;;;12.47;70.02;98358.38;5044395;28;20193;-56
2022/04/13 02:20:14;;;;;;;4.00;1.63;;;;;;;12.37;68.76;98357.75;5052209;28;20319;-57
2022/04/13 02:22:41;;;;;;;5.40;1.70;;;;;;;12.28;68.93;98353.53;5052799;28;20687;-57
2022/04/13 02:25:09;;;;;;;7.87;2.13;;;;;;;12.20;68.46;98357.81;5049493;28;20203;-57
2022/04/13 02:27:35;;;;;;;6.17;1.70;;;;;;;12.15;68.91;98354.88;5041616;28;20192;-57
2022/04/13 02:30:03;;;;;;;4.27;1.63;;;;;;;12.06;68.61;98353.25;5051672;28;20274;-56
2022/04/13 02:32:31;;;;;;;4.30;1.70;;;;;;;11.93;68.85;98359.78;5044144;28;20619;-57
2022/04/13 02:34:58;;;;;;;2.90;1.90;;;;;;;11.92;66.57;98357.34;5052203;28;20189;-56
2022/04/13 02:37:24;;;;;;;5.27;2.10;;;;;;;11.82;66.71;98350.50;5052518;28;20194;-57
2022/04/13 02:39:51;;;;;;;7.63;2.40;;;;;;;11.79;68.44;98360.47;5050596;28;20616;-56
2022/04/13 02:42:18;;;;;;;7.27;2.17;;;;;;;11.70;68.84;98350.97;5052654;28;20186;-57
2022/04/13 02:44:45;;;;;;;3.97;2.00;;;;;;;11.64;67.85;98339.41;5052010;28;20212;-57
2022/04/13 02:47:12;;;;;;;8.33;2.07;;;;;;;11.60;68.81;98343.31;5052424;28;20192;-56
2022/04/13 02:49:41;;;;;;;8.23;2.20;;;;;;;11.62;70.92;98349.19;5051603;28;20269;-57
2022/04/13 02:52:08;;;;;;;5.13;2.20;;;;;;;11.54;70.97;98352.66;5052419;28;20209;-57
2022/04/13 02:54:35;;;;;;;6.60;2.10;;;;;;;11.51;70.63;98348.56;5047806;28;20229;-57
2022/04/13 02:57:02;;;;;;;7.73;2.20;;;;;;;11.44;71.02;98349.38;5044575;28;20189;-57
2022/04/13 02:59:29;;;;;;;6.53;2.20;;;;;;;11.35;71.00;98346.75;5049338;28;20305;-57
2022/04/13 03:01:55;;;;;;;2.87;1.80;;;;;;;11.34;69.97;98346.91;5045114;28;20193;-57
2022/04/13 03:04:22;;;;;;;5.13;1.73;;;;;;;11.40;70.38;98351.50;5051633;28;20208;-57
2022/04/13 03:06:51;;;;;;;8.53;2.00;;;;;;;11.52;70.93;98349.38;5052118;28;20228;-57
2022/04/13 03:09:17;;;;;;;6.80;1.77;;;;;;;11.56;69.39;98350.69;5052201;28;20189;-57
2022/04/13 03:11:44;;;;;;;4.80;1.80;;;;;;;11.69;69.21;98360.63;5047844;28;20212;-56
2022/04/13 03:14:11;;;;;;;6.77;2.00;;;;;;;11.74;69.05;98354.91;5043820;28;20280;-57
2022/04/13 03:16:38;;;;;;;6.30;2.03;;;;;;;11.74;70.22;98352.28;5051061;28;20196;-56
2022/04/13 03:19:05;;;;;;;6.77;2.00;;;;;;;11.71;69.01;98350.00;5051693;28;20196;-56
2022/04/13 03:21:32;;;;;;;5.77;1.97;;;;;;;11.71;70.82;98358.69;5051137;28;20193;-57
2022/04/13 03:24:00;;;;;;;3.73;1.90;;;;;;;11.63;71.10;98351.66;5051519;28;20212;-56
2022/04/13 03:26:27;;;;;;;4.87;2.20;;;;;;;11.56;70.97;98355.09;5051735;28;20181;-57
2022/04/13 03:28:53;;;;;;;8.73;2.60;;;;;;;11.54;70.23;98359.66;5051794;28;20189;-57
2022/04/13 03:31:22;;;;;;;4.80;2.20;;;;;;;11.49;69.50;98357.56;5050826;28;20209;-57
2022/04/13 03:33:49;;;;;;;4.07;1.80;;;;;;;11.49;70.19;98357.56;5051678;28;20247;-57
2022/04/13 03:36:16;;;;;;;5.73;1.70;;;;;;;11.45;69.31;98353.63;5051154;28;20200;-57
2022/04/13 03:38:43;;;;;;;6.70;2.67;;;;;;;11.46;70.54;98355.25;5051560;28;20234;-57
2022/04/13 03:41:11;;;;;;;5.13;2.67;;;;;;;11.52;71.55;98355.41;5051125;28;20178;-57
2022/04/13 03:43:38;;;;;;;4.40;2.37;;;;;;;11.49;71.82;98360.16;5051389;28;20205;-57
2022/04/13 03:46:04;;;;;;;8.63;2.33;;;;;;;11.51;71.53;98350.38;5050799;28;20211;-57
2022/04/13 03:48:31;;;;;;;5.70;1.87;;;;;;;11.52;71.03;98350.19;5050798;28;20192;-57
2022/04/13 03:50:57;;;;;;;3.67;1.93;;;;;;;11.58;72.80;98350.50;5050396;28;20213;-57
2022/04/13 03:53:24;;;;;;;5.60;2.10;;;;;;;11.60;73.88;98352.00;5051011;28;20274;-57
2022/04/13 03:55:51;;;;;;;5.50;1.90;;;;;;;11.60;72.50;98357.22;5050794;28;20222;-57
2022/04/13 03:58:19;;;;;;;6.37;2.17;;;;;;;11.56;71.99;98358.53;5050949;28;20180;-56
2022/04/13 04:00:46;;;;;;;8.43;1.90;;;;;;;11.55;70.71;98359.50;5050265;28;20234;-56
2022/04/13 04:03:12;;;;;;;5.47;2.23;;;;;;;11.58;71.41;98359.19;5050932;28;20219;-57
2022/04/13 04:05:39;;;;;;;6.47;1.97;;;;;;;11.58;71.51;98366.19;5050892;28;20187;-57
2022/04/13 04:08:06;;;;;;;7.87;2.00;;;;;;;11.60;69.29;98365.06;5050847;28;20599;-57
2022/04/13 04:10:33;;;;;;;5.50;1.90;;;;;;;11.70;71.17;98367.50;5050087;28;20203;-57
2022/04/13 04:13:00;;;;;;;5.97;1.70;;;;;;;11.66;71.88;98371.44;5050784;28;20254;-57
2022/04/13 04:15:28;;;;;;;5.53;1.93;;;;;;;11.63;71.44;98366.53;5050319;28;20188;-56
2022/04/13 04:17:55;;;;;;;6.07;1.70;;;;;;;11.66;69.63;98374.03;5050844;28;20517;-57
2022/04/13 04:20:21;;;;;;;6.97;2.47;;;;;;;11.71;70.25;98371.75;5050024;28;20215;-57
2022/04/13 04:22:48;;;;;;;3.90;1.73;;;;;;;11.69;70.35;98365.03;5050596;28;20211;-57
2022/04/13 04:25:15;;;;;;;3.80;1.30;;;;;;;11.70;69.78;98377.13;5050281;28;20242;-57
2022/04/13 04:27:42;;;;;;;6.10;2.50;;;;;;;11.78;68.90;98374.50;5050527;28;20250;-57
2022/04/13 04:30:09;;;;;;;5.00;1.97;;;;;;;11.75;71.19;98367.84;5049696;28;20649;-56
2022/04/13 04:32:37;;;;;;;6.43;1.90;;;;;;;11.75;72.38;98369.63;5050338;28;20212;-55
2022/04/13 04:35:05;;;;;;;4.97;1.80;;;;;;;11.71;71.10;98370.91;5050065;28;20185;-56
2022/04/13 04:37:32;;;;;;;6.47;2.27;;;;;;;11.69;71.30;98370.25;5050299;28;20275;-53
2022/04/13 04:39:59;;;;;;;5.33;1.90;;;;;;;11.70;71.73;98375.34;5049521;28;20275;-56
2022/04/13 04:42:27;;;;;;;5.20;1.70;;;;;;;11.69;71.76;98365.88;5050360;28;20186;-56
2022/04/13 04:44:56;;;;;;;3.70;1.80;;;;;;;11.62;72.07;98370.94;5049870;28;20240;-56
2022/04/13 04:47:23;;;;;;;4.27;1.80;;;;;;;11.65;71.21;98359.34;5050137;28;20184;-56
2022/04/13 04:49:51;;;;;;;5.67;2.63;;;;;;;11.60;73.16;98362.47;5049624;28;20267;-56
2022/04/13 04:52:18;;;;;;;7.43;2.00;;;;;;;11.54;73.13;98367.50;5050239;28;20223;-55
2022/04/13 04:54:46;;;;;;;6.90;1.80;;;;;;;11.56;69.34;98369.00;5049478;28;20213;-57
2022/04/13 04:57:13;;;;;;;4.00;2.00;;;;;;;11.58;70.59;98366.19;5050169;28;20264;-57
2022/04/13 04:59:39;;;;;;;7.20;2.40;;;;;;;11.62;70.06;98368.34;5049117;28;20208;-57
2022/04/13 05:02:06;;;;;;;9.27;2.30;;;;;;;11.61;69.34;98363.25;5049290;28;20208;-57
2022/04/13 05:04:33;;;;;;;8.90;1.97;;;;;;;11.63;71.15;98371.75;5049492;28;20228;-57
2022/04/13 05:07:01;;;;;;;2.63;1.50;;;;;;;11.64;69.40;98374.22;5049923;28;20188;-57
2022/04/13 05:09:28;;;;;;;4.50;1.90;;;;;;;11.69;69.49;98370.25;5049861;28;20196;-56
2022/04/13 05:11:55;;;;;;;4.67;1.77;;;;;;;11.63;71.17;98374.38;5043411;28;20693;-56
2022/04/13 05:14:22;;;;;;;11.23;5.77;;;;;;;11.71;69.42;98387.44;5039429;28;20715;-57
2022/04/13 05:16:48;;;;;;;5.07;2.00;;;;;;;11.71;69.52;98384.81;5049738;28;20192;-57
2022/04/13 05:19:16;;;;;;;4.87;2.40;;;;;;;11.73;68.34;98384.66;5049959;28;20188;-56
2022/04/13 05:21:42;;;;;;;6.53;1.70;;;;;;;11.78;71.72;98382.34;5048918;28;20192;-57
2022/04/13 05:24:10;;;;;;;4.30;2.00;;;;;;;11.71;71.85;98384.81;5049485;28;20222;-57
2022/04/13 05:26:38;;;;;;;8.93;4.17;;;;;;;11.64;70.99;98387.28;5049837;28;20191;-56
2022/04/13 05:29:05;;;;;;;4.87;2.10;;;;;;;11.66;71.03;98381.88;5049672;28;20189;-57
2022/04/13 05:31:32;;;;;;;5.53;1.87;;;;;;;11.62;72.35;98377.97;5048643;28;20220;-57
2022/04/13 05:33:59;;;;;;;3.83;2.13;;;;;;;11.62;71.60;98386.63;5049260;28;20212;-57
2022/04/13 05:36:25;;;;;;;19.07;12.47;;;;;;;11.64;71.97;98391.69;5049683;28;20183;-57
2022/04/13 05:38:52;;;;;;;10.57;4.77;;;;;;;11.71;71.73;98389.22;5049722;28;20203;-56
2022/04/13 05:41:20;;;;;;;3.97;2.20;;;;;;;11.72;74.13;98404.75;5048863;28;20191;-57
2022/04/13 05:43:47;;;;;;;4.37;2.03;;;;;;;11.75;73.31;98399.22;5049518;28;20219;-56
2022/04/13 05:46:14;;;;;;;4.07;1.90;;;;;;;11.76;74.36;98400.00;5049017;28;20367;-56
2022/04/13 05:48:40;;;;;;;8.97;2.03;;;;;;;11.82;74.40;98401.97;5049524;28;20199;-56
2022/04/13 05:51:09;;;;;;;9.37;2.30;;;;;;;11.90;71.57;98398.53;5048675;28;20193;-57
2022/04/13 05:53:35;;;;;;;7.57;2.10;;;;;;;12.02;71.04;98409.50;5049491;28;20259;-57
2022/04/13 05:56:02;;;;;;;6.70;1.97;;;;;;;12.18;69.52;98409.50;5049019;28;20276;-57
2022/04/13 05:58:30;;;;;;;3.90;1.57;;;;;;;12.27;71.58;98414.72;5049441;28;20196;-56
2022/04/13 06:00:57;;;;;;;6.43;1.80;;;;;;;12.35;72.38;98425.16;5048668;28;20390;-54
2022/04/13 06:03:25;;;;;;;7.67;1.87;;;;;;;12.41;72.50;98416.63;5049229;28;20205;-54
2022/04/13 06:05:51;;;;;;;2.93;1.97;;;;;;;12.51;72.88;98422.50;5049122;28;20181;-54
2022/04/13 06:08:18;;;;;;;2.90;1.70;;;;;;;12.47;73.28;98428.22;5049395;28;20615;-54
2022/04/13 06:10:45;;;;;;;7.13;1.90;;;;;;;12.60;73.08;98432.94;5048657;28;20192;-54
2022/04/13 06:13:12;;;;;;;6.87;2.07;;;;;;;12.60;74.50;98439.00;5051966;28;20216;-54
2022/04/13 06:15:41;;;;;;;8.13;2.30;;;;;;;12.76;71.94;98440.72;5052802;28;20196;-54
2022/04/13 06:18:08;;;;;;;2.60;2.10;;;;;;;12.90;70.08;98446.25;5053005;28;20744;-54
2022/04/13 06:20:34;;;;;;;4.67;2.40;;;;;;;12.95;69.48;98447.38;5052209;28;20186;-54
2022/04/13 06:23:01;;;;;;;7.40;2.57;;;;;;;13.09;67.89;98448.44;5052977;28;20745;-54
2022/04/13 06:25:28;;;;;;;9.10;2.47;;;;;;;13.20;68.83;98460.38;5041600;28;20198;-54
2022/04/13 06:27:55;;;;;;;9.13;2.67;;;;;;;13.29;69.87;98459.31;5047361;28;20216;-54
2022/04/13 06:30:22;;;;;;;11.23;2.60;;;;;;;13.38;69.81;98469.75;5049026;28;20661;-54
2022/04/13 06:32:50;;;;;;;5.17;2.10;;;;;;;13.45;70.42;98465.47;5052657;28;20217;-54
2022/04/13 06:35:17;;;;;;;5.57;2.37;;;;;;;13.55;70.27;98470.53;5052319;28;20192;-54
2022/04/13 06:37:45;;;;;;;5.67;2.03;;;;;;;13.65;69.42;98465.03;5052606;28;20207;-54
2022/04/13 06:40:13;;;;;;;3.90;1.90;;;;;;;13.69;71.02;98471.56;5051964;28;20178;-54
2022/04/13 06:42:41;;;;;;;3.97;2.00;;;;;;;13.72;71.42;98465.97;5052544;28;20186;-54
2022/04/13 06:45:10;;;;;;;6.77;2.10;;;;;;;13.76;71.87;98469.88;5051956;28;20267;-54
2022/04/13 06:47:37;;;;;;;5.10;1.60;;;;;;;13.86;71.82;98472.25;5052433;28;20281;-53
2022/04/13 06:50:07;;;;;;;4.97;1.77;;;;;;;13.90;72.36;98467.47;5051788;28;20284;-53
2022/04/13 06:52:34;;;;;;;23.73;2.00;;;;;;;13.99;72.16;98464.59;5052221;28;20320;-54
2022/04/13 06:55:01;;;;;;;8.07;1.57;;;;;;;14.12;70.78;98476.31;5051942;28;20185;-54
2022/04/13 06:57:27;;;;;;;5.50;1.67;;;;;;;14.25;69.69;98473.91;5052038;28;20191;-54
2022/04/13 06:59:54;;;;;;;2.97;1.60;;;;;;;14.39;69.77;98474.91;5051622;28;20193;-53
2022/04/13 07:02:21;;;;;;;5.50;1.47;;;;;;;14.47;69.90;98482.72;5052206;28;20273;-54
2022/04/13 07:04:48;;;;;;;3.90;1.80;;;;;;;14.61;68.18;98480.28;5050353;28;20192;-54
2022/04/13 07:07:16;;;;;;;4.93;1.87;;;;;;;14.73;68.18;98488.56;5052157;28;20192;-54
2022/04/13 07:09:43;;;;;;;5.77;1.80;;;;;;;15.00;66.73;98494.16;5051726;28;20220;-54
2022/04/13 07:12:10;;;;;;;9.27;3.60;;;;;;;15.03;65.08;98502.50;5046618;28;20206;-54
2022/04/13 07:14:37;;;;;;;10.70;4.47;;;;;;;15.18;63.45;98506.94;5041576;28;20262;-54
2022/04/13 07:17:04;;;;;;;10.00;4.13;;;;;;;15.26;62.81;98508.63;5051989;28;20198;-54
2022/04/13 07:19:31;;;;;;;11.83;4.57;;;;;;;15.29;63.08;98511.72;5051719;28;20218;-55
2022/04/13 07:21:59;;;;;;;13.13;4.07;;;;;;;15.34;61.46;98509.38;5051360;28;20602;-54
2022/04/13 07:24:28;;;;;;;8.53;4.20;;;;;;;15.42;61.67;98512.84;5049255;28;20971;-54
2022/04/13 07:26:54;;;;;;;8.47;3.83;;;;;;;15.45;61.79;98513.31;5050411;28;20205;-54
2022/04/13 07:29:21;;;;;;;7.80;3.43;;;;;;;15.54;61.19;98521.09;5051796;28;20262;-54
2022/04/13 07:31:48;;;;;;;6.80;3.37;;;;;;;15.49;59.71;98525.09;5049666;28;20215;-54
2022/04/13 07:34:15;;;;;;;5.80;3.03;;;;;;;15.75;58.27;98536.09;5051210;28;20238;-54
2022/04/13 07:36:42;;;;;;;8.83;3.67;;;;;;;15.65;56.63;98534.56;5051656;28;20205;-55
2022/04/13 07:39:09;;;;;;;8.13;3.47;;;;;;;15.78;56.27;98539.19;5051563;28;20569;-54
2022/04/13 07:41:37;;;;;;;6.63;3.40;;;;;;;15.87;56.46;98547.00;5050791;28;20187;-54
2022/04/13 07:44:04;;;;;;;12.80;3.80;;;;;;;15.93;55.56;98543.59;5049691;28;20594;-54
2022/04/13 07:46:30;;;;;;;7.30;3.73;;;;;;;15.91;58.39;98545.59;5051362;28;20188;-54
2022/04/13 07:48:57;;;;;;;13.27;3.70;;;;;;;16.11;57.13;98547.59;5051400;28;20200;-54
2022/04/13 07:51:24;;;;;;;6.33;3.53;;;;;;;16.18;56.52;98544.03;5050618;28;20215;-54
2022/04/13 07:53:51;;;;;;;11.30;4.23;;;;;;;16.31;55.43;98553.84;5063970;22;20529;-52
2022/04/13 07:56:18;;;;;;;6.97;3.40;;;;;;;16.32;54.94;98560.75;5039333;28;20200;-52
2022/04/13 07:58:46;;;;;;;7.90;3.10;;;;;;;16.41;54.59;98553.56;5047225;28;20185;-53
2022/04/13 08:01:14;;;;;;;7.73;3.50;;;;;;;16.47;55.16;98555.41;5046165;28;20187;-52
2022/04/13 08:03:41;;;;;;;9.70;3.63;;;;;;;16.58;54.25;98556.72;5051031;28;20215;-53
2022/04/13 08:06:10;;;;;;;5.93;3.37;;;;;;;16.67;52.79;98557.38;5050817;28;20299;-52
2022/04/13 08:08:37;;;;;;;9.17;3.80;;;;;;;16.62;52.86;98559.75;5051015;28;20189;-53
2022/04/13 08:11:03;;;;;;;8.13;3.70;;;;;;;16.80;54.14;98554.81;5050140;28;20186;-52
2022/04/13 08:13:30;;;;;;;10.93;3.40;;;;;;;16.90;53.38;98554.50;5051098;28;20674;-53
2022/04/13 08:15:58;;;;;;;10.60;3.97;;;;;;;17.09;52.10;98558.28;5050471;28;20663;-53
2022/04/13 08:18:25;;;;;;;13.23;6.03;;;;;;;17.09;51.25;98554.81;5050794;28;20195;-53
2022/04/13 08:20:52;;;;;;;11.23;4.53;;;;;;;17.31;51.83;98557.34;5049885;28;20192;-54
2022/04/13 08:23:18;;;;;;;6.73;4.00;;;;;;;17.43;50.85;98555.78;5050662;28;20217;-54
2022/04/13 08:25:46;;;;;;;7.20;3.37;;;;;;;17.50;49.82;98554.00;5038005;28;20558;-54
2022/04/13 08:28:12;;;;;;;7.20;2.40;;;;;;;17.55;45.59;98551.56;5041475;28;20743;-53
2022/04/13 08:30:39;;;;;;;8.70;2.77;;;;;;;17.71;45.04;98542.47;5049109;28;20193;-53
2022/04/13 08:33:07;;;;;;;6.03;2.60;;;;;;;17.76;45.92;98548.97;5050558;28;20223;-52
2022/04/13 08:35:34;;;;;;;9.97;2.87;;;;;;;17.90;46.37;98552.47;5050179;28;20673;-53
2022/04/13 08:38:01;;;;;;;7.67;2.60;;;;;;;17.94;46.83;98543.94;5050307;28;20193;-53
2022/04/13 08:40:28;;;;;;;5.13;2.90;;;;;;;18.03;47.30;98547.22;5049588;28;20201;-53
2022/04/13 08:43:04;;;;;;;9.70;2.80;;;;;;;18.10;48.17;98540.13;5050146;28;20748;-54
2022/04/13 08:45:38;;;;;;;5.70;2.60;;;;;;;18.25;49.04;98537.31;5049832;28;20193;-53
2022/04/13 08:48:11;;;;;;;6.33;2.33;;;;;;;18.37;49.22;98534.84;5050379;28;20220;-54
2022/04/13 08:50:39;;;;;;;7.00;2.50;;;;;;;18.53;49.27;98527.53;5049764;28;20755;-54
2022/04/13 08:53:12;;;;;;;5.03;2.10;;;;;;;18.68;48.31;98532.59;5049914;28;20215;-52
2022/04/13 08:55:48;;;;;;;8.90;2.40;;;;;;;18.75;46.80;98536.03;5049676;28;20189;-53
2022/04/13 08:58:22;;;;;;;7.10;2.10;;;;;;;18.84;46.96;98534.00;5050171;28;20193;-53
2022/04/13 09:00:50;;;;;;;3.93;1.80;;;;;;;19.06;44.16;98531.13;5049196;28;20251;-53
2022/04/13 09:03:27;;;;;;;4.47;2.50;;;;;;;19.10;45.09;98529.66;5049953;28;20745;-54
2022/04/13 09:05:56;;;;;;;10.33;3.20;;;;;;;19.10;45.45;98532.31;5049430;28;20269;-54
2022/04/13 09:08:24;;;;;;;9.00;3.60;;;;;;;19.04;46.40;98536.63;5049843;28;20265;-54
2022/04/13 09:10:52;;;;;;;9.20;3.33;;;;;;;19.03;46.36;98538.47;5048161;28;20220;-53
2022/04/13 09:13:21;;;;;;;7.67;2.90;;;;;;;19.01;48.49;98537.84;5024425;28;20222;-55
2022/04/13 09:15:48;;;;;;;11.50;3.37;;;;;;;19.11;46.53;98536.56;5038011;28;20222;-54
2022/04/13 09:18:15;;;;;;;5.40;2.43;;;;;;;19.16;47.06;98537.59;5041407;28;20188;-52
2022/04/13 09:20:43;;;;;;;10.30;2.67;;;;;;;19.15;46.15;98533.31;5049134;28;20602;-53
2022/04/13 09:23:11;;;;;;;8.23;2.97;;;;;;;19.11;47.46;98541.88;5049784;28;20208;-53
2022/04/13 09:25:40;;;;;;;6.27;2.90;;;;;;;19.13;49.17;98545.94;5049341;28;20561;-54
2022/04/13 09:28:07;;;;;;;5.33;2.40;;;;;;;19.18;48.42;98543.50;5049684;28;20216;-53
2022/04/13 09:30:35;;;;;;;8.37;2.63;;;;;;;19.16;47.68;98550.81;5049145;28;20278;-54
2022/04/13 09:33:03;;;;;;;9.63;2.63;;;;;;;19.25;49.05;98542.66;5049522;28;20239;-53
2022/04/13 09:35:32;;;;;;;8.37;3.03;;;;;;;19.01;50.85;98550.25;5049250;28;20243;-53
2022/04/13 09:38:03;;;;;;;8.40;3.23;;;;;;;19.15;50.23;98556.31;5049747;28;20186;-53
2022/04/13 09:40:33;;;;;;;5.97;2.80;;;;;;;18.91;51.07;98549.84;5048949;28;20272;-53
2022/04/13 09:43:08;;;;;;;11.53;3.47;;;;;;;18.87;51.05;98555.53;5038759;28;20187;-54
2022/04/13 09:45:36;;;;;;;7.40;2.60;;;;;;;19.01;48.80;98561.66;5032817;28;20653;-53
2022/04/13 09:48:08;;;;;;;11.73;3.00;;;;;;;18.99;49.07;98561.06;5029347;28;20188;-53
2022/04/13 09:50:36;;;;;;;8.53;2.77;;;;;;;18.91;48.50;98555.94;5028876;28;20527;-54
2022/04/13 09:53:05;;;;;;;5.53;2.77;;;;;;;18.77;47.98;98559.63;5034229;28;20218;-55
2022/04/13 09:55:38;;;;;;;10.57;2.70;;;;;;;18.95;46.89;98561.63;5031349;28;20582;-55
2022/04/13 09:58:06;;;;;;;6.30;2.50;;;;;;;19.18;45.74;98556.72;5032981;28;20662;-55
2022/04/13 10:00:34;;;;;;;5.07;2.30;;;;;;;19.23;42.89;98556.06;5020129;28;20196;-55
2022/04/13 10:03:10;;;;;;;10.03;2.60;;;;;;;19.17;41.76;98556.91;5020299;28;20234;-54
2022/04/13 10:05:36;;;;;;;9.80;2.13;;;;;;;19.33;39.68;98559.09;5022278;28;20249;-54
2022/04/13 10:08:08;;;;;;;3.43;2.00;;;;;;;19.49;39.69;98549.06;5028108;28;20206;-54
2022/04/13 10:10:35;;;;;;;8.23;2.13;;;;;;;19.31;38.71;98542.63;5046139;28;20687;-54
2022/04/13 10:13:02;;;;;;;10.83;2.20;;;;;;;19.53;38.53;98552.91;5047957;28;20212;-54
2022/04/13 10:15:30;;;;;;;5.27;1.80;;;;;;;19.35;38.08;98550.97;5053449;28;20366;-54
2022/04/13 10:18:00;;;;;;;6.77;1.90;;;;;;;19.55;38.98;98552.72;5053515;28;20182;-55
2022/04/13 10:20:43;;;;;;;8.73;1.93;;;;;;;19.71;38.07;98552.19;5052780;28;20181;-54
2022/04/13 10:23:11;;;;;;;11.03;2.33;;;;;;;19.74;37.70;98545.69;5042975;28;20303;-54
2022/04/13 10:25:38;;;;;;;4.30;1.60;;;;;;;19.87;39.50;98553.56;5045550;28;20194;-55
2022/04/13 10:28:05;;;;;;;7.97;2.00;;;;;;;20.13;38.75;98546.50;5048214;28;20192;-55
2022/04/13 10:30:33;;;;;;;4.60;1.70;;;;;;;20.25;38.88;98543.94;5052894;28;20268;-55
2022/04/13 10:33:01;;;;;;;5.20;2.20;;;;;;;20.12;38.68;98541.38;5053083;28;20206;-54
2022/04/13 10:35:29;;;;;;;5.80;1.83;;;;;;;20.06;40.26;98541.22;5052928;28;20223;-55
2022/04/13 10:37:56;;;;;;;9.90;2.67;;;;;;;20.07;39.80;98536.75;5053288;28;20190;-55
2022/04/13 10:40:26;;;;;;;6.83;2.47;;;;;;;20.30;39.66;98537.97;5052563;28;20201;-55
2022/04/13 10:42:54;;;;;;;7.43;2.80;;;;;;;20.29;39.58;98539.84;5053322;28;20184;-55
2022/04/13 10:45:20;;;;;;;6.33;2.57;;;;;;;20.20;40.92;98539.28;5052938;28;20221;-55
2022/04/13 10:47:54;;;;;;;5.87;2.27;;;;;;;20.32;40.16;98539.41;5053277;28;20343;-55
2022/04/13 10:50:30;;;;;;;8.70;2.53;;;;;;;20.32;39.32;98547.34;5014571;28;20199;-55
2022/04/13 10:53:00;;;;;;;7.93;2.27;;;;;;;20.24;40.08;98542.31;5013026;28;20265;-54
2022/04/13 10:55:30;;;;;;;6.33;2.10;;;;;;;20.29;41.64;98549.59;5012889;28;20187;-55
2022/04/13 10:58:04;;;;;;;5.67;2.47;;;;;;;20.27;43.01;98541.88;5012651;28;20183;-55
2022/04/13 11:00:32;;;;;;;6.23;2.20;;;;;;;20.50;41.05;98548.44;5011853;28;20587;-55
2022/04/13 11:03:03;;;;;;;7.63;2.60;;;;;;;20.43;40.67;98537.88;5013023;28;20241;-50
2022/04/13 11:05:30;;;;;;;11.37;2.87;;;;;;;20.58;40.68;98537.56;5012737;28;20180;-56
2022/04/13 11:08:08;;;;;;;7.70;2.50;;;;;;;20.60;41.72;98537.31;5013080;28;20184;-57
2022/04/13 11:10:38;;;;;;;10.20;2.77;;;;;;;20.67;41.20;98535.41;5012346;28;20199;-55
2022/04/13 11:13:05;;;;;;;10.20;2.90;;;;;;;20.63;40.30;98531.56;5012721;28;20255;-56
2022/04/13 11:15:40;;;;;;;5.90;2.60;;;;;;;20.84;40.88;98525.06;5014941;28;20192;-59
2022/04/13 11:18:11;;;;;;;7.93;1.97;;;;;;;20.96;41.49;98533.13;5036957;28;20265;-57
2022/04/13 11:21:04;;;;;;;3.17;2.17;;;;;;;21.13;39.18;98535.19;5041700;28;20214;-58
2022/04/13 11:23:47;;;;;;;8.47;2.53;;;;;;;21.16;39.11;98540.84;5050581;28;20208;-58
2022/04/13 11:26:16;;;;;;;10.60;2.23;;;;;;;21.22;39.00;98539.13;5052009;28;20188;-58
2022/04/13 11:28:42;;;;;;;7.63;1.97;;;;;;;21.21;42.59;98540.16;5052353;28;20248;-58
2022/04/13 11:31:11;;;;;;;7.33;2.10;;;;;;;21.33;38.56;98542.91;5017216;28;20214;-58
2022/04/13 11:33:51;;;;;;;7.10;2.30;;;;;;;21.28;40.07;98543.56;5012561;28;20239;-58
2022/04/13 11:36:20;;;;;;;3.67;2.03;;;;;;;21.41;38.89;98544.44;5012463;28;20239;-58